createdAt,value
2022-09-26T00:00:16.995Z,99997.66
2022-09-26T00:02:20.218Z,99988.53
2022-09-26T00:04:29.054Z,99984.75
2022-09-26T00:06:35.351Z,99979.25
2022-09-26T00:08:38.341Z,99980.66
2022-09-26T00:10:41.179Z,99978.66
2022-09-26T00:12:44.095Z,99974.56
2022-09-26T00:14:48.335Z,99976.25
2022-09-26T00:16:51.269Z,99961.19
2022-09-26T00:18:56.317Z,99956.69
2022-09-26T00:21:04.647Z,99958.53
2022-09-26T00:23:07.438Z,99959.16
2022-09-26T00:25:10.775Z,99958.06
2022-09-26T00:27:13.649Z,99949.59
2022-09-26T00:29:16.710Z,99947.03
2022-09-26T00:31:23.940Z,99943.41
2022-09-26T00:33:26.838Z,99939.91
2022-09-26T00:35:29.649Z,99928.88
2022-09-26T00:37:32.517Z,99934.16
2022-09-26T00:39:35.362Z,99927.28
2022-09-26T00:41:38.819Z,99913.31
2022-09-26T00:43:43.661Z,99915.13
2022-09-26T00:45:46.612Z,99913.78
2022-09-26T00:47:58.087Z,99896.75
2022-09-26T00:50:04.125Z,99905.25
2022-09-26T00:52:10.831Z,99895.34
2022-09-26T00:54:14.930Z,99903.28
2022-09-26T00:56:20.392Z,99893.75
2022-09-26T00:58:26.065Z,99887.44
2022-09-26T01:00:32.559Z,99885.66
2022-09-26T01:02:39.852Z,99882.22
2022-09-26T01:04:45.848Z,99881.75
2022-09-26T01:06:50.135Z,99873.06
2022-09-26T01:08:55.425Z,99870.25
2022-09-26T01:10:58.748Z,99870.75
2022-09-26T01:13:02.941Z,99868.88
2022-09-26T01:15:07.417Z,99868.81
2022-09-26T01:17:10.967Z,99864.31
2022-09-26T01:19:18.159Z,99867.94
2022-09-26T01:21:42.080Z,99856.41
2022-09-26T01:24:23.385Z,99865.75
2022-09-26T01:26:32.093Z,99857.78
2022-09-26T01:28:45.192Z,99854.44
2022-09-26T01:30:51.841Z,99857.84
2022-09-26T01:33:03.775Z,99850.56
2022-09-26T01:35:12.501Z,99844.44
2022-09-26T01:37:21.358Z,99847.78
2022-09-26T01:39:32.531Z,99845.13
2022-09-26T01:41:45.674Z,99839.53
2022-09-26T01:43:52.455Z,99832.06
2022-09-26T01:46:00.425Z,99830.66
2022-09-26T01:48:06.913Z,99830.22
2022-09-26T01:50:15.914Z,99829.50
2022-09-26T01:52:23.210Z,99815.94
2022-09-26T01:54:28.526Z,99822.00
2022-09-26T01:56:34.749Z,99819.25
2022-09-26T01:58:40.693Z,99809.69
2022-09-26T02:00:45.510Z,99808.44
2022-09-26T02:02:51.216Z,99809.25
2022-09-26T02:04:58.771Z,99795.31
2022-09-26T02:07:05.172Z,99795.56
2022-09-26T02:09:10.816Z,99791.91
2022-09-26T02:11:15.170Z,99792.06
2022-09-26T02:13:22.364Z,99789.69
2022-09-26T02:15:27.913Z,99783.53
2022-09-26T02:17:35.271Z,99764.09
2022-09-26T02:19:43.054Z,99768.91
2022-09-26T02:21:45.902Z,99768.75
2022-09-26T02:23:49.239Z,99766.91
2022-09-26T02:25:52.151Z,99771.03
2022-09-26T02:27:55.050Z,99765.91
2022-09-26T02:29:58.695Z,99763.41
2022-09-26T02:32:05.895Z,99753.31
2022-09-26T02:34:09.176Z,99757.13
2022-09-26T02:36:13.445Z,99756.25
2022-09-26T02:38:17.407Z,99754.66
2022-09-26T02:40:34.210Z,99745.22
2022-09-26T02:42:43.226Z,99737.38
2022-09-26T02:45:06.845Z,99740.13
2022-09-26T02:47:25.464Z,99732.94
2022-09-26T02:49:48.966Z,99736.91
2022-09-26T02:52:04.137Z,99737.94
2022-09-26T02:54:17.121Z,99728.84
2022-09-26T02:56:30.037Z,99729.84
2022-09-26T02:58:42.468Z,99725.88
2022-09-26T03:00:54.419Z,99722.78
2022-09-26T03:03:04.180Z,99721.94
2022-09-26T03:05:10.698Z,99707.94
2022-09-26T03:07:19.995Z,99707.94
2022-09-26T03:09:24.814Z,99698.06
2022-09-26T03:11:29.809Z,99691.38
2022-09-26T03:13:36.221Z,99698.06
2022-09-26T03:15:40.618Z,99689.31
2022-09-26T03:17:46.946Z,99678.75
2022-09-26T03:19:54.307Z,99681.91
2022-09-26T03:21:57.730Z,99682.00
2022-09-26T03:24:02.173Z,99678.13
2022-09-26T03:26:11.310Z,99670.06
2022-09-26T03:28:22.390Z,99672.63
2022-09-26T03:30:25.476Z,99669.28
2022-09-26T03:32:57.648Z,99658.03
2022-09-26T03:35:01.547Z,99657.94
2022-09-26T03:37:04.448Z,99661.44
2022-09-26T03:39:09.930Z,99658.53
2022-09-26T03:41:20.747Z,99653.59
2022-09-26T03:43:46.802Z,99645.59
2022-09-26T03:45:50.837Z,99652.56
2022-09-26T03:47:58.231Z,99651.03
2022-09-26T03:50:01.442Z,99646.09
2022-09-26T03:52:04.686Z,99652.38
2022-09-26T03:54:09.047Z,99643.28
2022-09-26T03:56:14.804Z,99644.41
2022-09-26T03:58:17.890Z,99639.13
2022-09-26T04:00:21.118Z,99632.13
2022-09-26T04:02:25.203Z,99634.75
2022-09-26T04:04:42.684Z,99620.16
2022-09-26T04:06:46.453Z,99617.09
2022-09-26T04:08:52.606Z,99622.78
2022-09-26T04:11:21.846Z,99624.22
2022-09-26T04:13:49.962Z,99616.59
2022-09-26T04:15:58.261Z,99604.81
2022-09-26T04:18:13.871Z,99609.34
2022-09-26T04:20:25.453Z,99600.97
2022-09-26T04:22:32.144Z,99594.94
2022-09-26T04:24:38.773Z,99593.50
2022-09-26T04:26:46.945Z,99592.03
2022-09-26T04:28:53.686Z,99581.81
2022-09-26T04:31:02.488Z,99573.47
2022-09-26T04:33:08.724Z,99574.56
2022-09-26T04:35:14.941Z,99576.88
2022-09-26T04:37:21.782Z,99564.75
2022-09-26T04:39:25.811Z,99563.50
2022-09-26T04:41:33.228Z,99561.81
2022-09-26T04:43:48.885Z,99557.78
2022-09-26T04:45:54.893Z,99561.94
2022-09-26T04:48:00.074Z,99556.53
2022-09-26T04:50:07.035Z,99557.28
2022-09-26T04:52:12.463Z,99552.00
2022-09-26T04:54:18.975Z,99549.69
2022-09-26T04:56:27.494Z,99552.25
2022-09-26T04:58:35.118Z,99546.09
2022-09-26T05:00:46.221Z,99539.13
2022-09-26T05:02:54.838Z,99544.69
2022-09-26T05:05:01.611Z,99537.84
2022-09-26T05:07:09.035Z,99544.78
2022-09-26T05:09:13.524Z,99537.69
2022-09-26T05:11:30.948Z,99531.41
2022-09-26T05:13:53.129Z,99535.72
2022-09-26T05:16:03.005Z,99526.97
2022-09-26T05:18:11.473Z,99518.78
2022-09-26T05:20:15.342Z,99519.66
2022-09-26T05:22:25.275Z,99518.38
2022-09-26T05:24:48.112Z,99513.50
2022-09-26T05:26:53.945Z,99508.41
2022-09-26T05:29:06.846Z,99511.28
2022-09-26T05:31:37.963Z,99505.91
2022-09-26T05:33:42.925Z,99507.03
2022-09-26T05:35:55.081Z,99502.34
2022-09-26T05:38:03.876Z,99496.47
2022-09-26T05:40:29.121Z,99504.13
2022-09-26T05:42:34.528Z,99496.88
2022-09-26T05:44:39.985Z,99492.38
2022-09-26T05:46:44.897Z,99488.03
2022-09-26T05:48:51.241Z,99490.00
2022-09-26T05:51:03.785Z,99487.59
2022-09-26T05:53:06.767Z,99488.69
2022-09-26T05:55:14.513Z,99495.44
2022-09-26T05:57:55.977Z,99482.41
2022-09-26T06:00:03.240Z,99483.19
2022-09-26T06:02:26.108Z,99495.94
2022-09-26T06:04:53.192Z,99478.59
2022-09-26T06:07:17.474Z,99479.25
2022-09-26T06:09:26.231Z,99481.31
2022-09-26T06:11:51.739Z,99478.81
2022-09-26T06:13:56.708Z,99477.72
2022-09-26T06:16:03.673Z,99466.78
2022-09-26T06:18:14.002Z,99459.81
2022-09-26T06:20:18.351Z,99445.25
2022-09-26T06:22:22.015Z,99451.22
2022-09-26T06:24:34.021Z,99451.41
2022-09-26T06:26:39.147Z,99433.88
2022-09-26T06:28:42.966Z,99434.84
2022-09-26T06:30:48.787Z,99437.53
2022-09-26T06:33:04.307Z,99423.38
2022-09-26T06:35:37.198Z,99415.34
2022-09-26T06:37:56.206Z,99408.47
2022-09-26T06:40:20.404Z,99397.03
2022-09-26T06:42:26.661Z,99397.50
2022-09-26T06:45:04.061Z,99378.38
2022-09-26T06:47:28.258Z,99369.66
2022-09-26T06:50:01.385Z,99369.75
2022-09-26T06:52:11.355Z,99374.72
2022-09-26T06:54:15.468Z,99364.72
2022-09-26T06:56:18.711Z,99351.34
2022-09-26T06:58:22.021Z,99356.63
2022-09-26T07:00:44.499Z,99353.63
2022-09-26T07:03:07.014Z,99340.31
2022-09-26T07:05:32.014Z,99349.44
2022-09-26T07:07:45.479Z,99342.56
2022-09-26T07:09:57.882Z,99326.16
2022-09-26T07:12:16.094Z,99320.13
2022-09-26T07:14:22.725Z,99318.03
2022-09-26T07:16:32.042Z,99314.34
2022-09-26T07:19:13.605Z,99323.66
2022-09-26T07:21:33.221Z,99303.84
2022-09-26T07:23:47.588Z,99301.31
2022-09-26T07:26:04.564Z,99298.50
2022-09-26T07:28:11.908Z,99298.75
2022-09-26T07:30:35.707Z,99294.53
2022-09-26T07:33:03.836Z,99293.28
2022-09-26T07:35:21.292Z,99286.72
2022-09-26T07:37:29.633Z,99284.03
2022-09-26T07:39:36.285Z,99290.28
2022-09-26T07:41:39.202Z,99285.53
2022-09-26T07:44:30.296Z,99281.41
2022-09-26T07:46:34.991Z,99285.97
2022-09-26T07:48:57.940Z,99286.72
2022-09-26T07:51:37.562Z,99290.13
2022-09-26T07:53:44.075Z,99268.25
2022-09-26T07:56:19.546Z,99277.59
2022-09-26T07:58:44.721Z,99278.09
2022-09-26T08:01:22.408Z,99282.25
2022-09-26T08:03:57.373Z,99270.25
2022-09-26T08:06:21.512Z,99271.88
2022-09-26T08:08:30.116Z,99266.75
2022-09-26T08:10:39.412Z,99267.63
2022-09-26T08:12:54.904Z,99268.44
2022-09-26T08:15:20.896Z,99259.88
2022-09-26T08:17:25.550Z,99258.38
2022-09-26T08:19:30.498Z,99259.84
2022-09-26T08:21:34.227Z,99254.78
2022-09-26T08:23:38.604Z,99254.38
2022-09-26T08:26:16.841Z,99260.94
2022-09-26T08:28:29.301Z,99260.41
2022-09-26T08:30:34.050Z,99251.06
2022-09-26T08:32:43.061Z,99260.19
2022-09-26T08:34:47.709Z,99258.28
2022-09-26T08:37:09.464Z,99254.91
2022-09-26T08:39:20.785Z,99249.63
2022-09-26T08:42:09.578Z,99246.84
2022-09-26T08:44:36.684Z,99255.06
2022-09-26T08:47:28.509Z,99238.31
2022-09-26T08:50:00.059Z,99250.16
2022-09-26T08:52:10.709Z,99254.41
2022-09-26T08:54:16.135Z,99255.34
2022-09-26T08:56:21.546Z,99265.13
2022-09-26T08:58:29.226Z,99262.38
2022-09-26T09:00:39.100Z,99266.75
2022-09-26T09:03:03.742Z,99267.78
2022-09-26T09:05:10.201Z,99267.22
2022-09-26T09:07:22.383Z,99273.88
2022-09-26T09:09:27.609Z,99275.91
2022-09-26T09:12:10.610Z,99279.88
2022-09-26T09:14:26.580Z,99282.56
2022-09-26T09:16:51.428Z,99298.88
2022-09-26T09:19:11.119Z,99291.94
2022-09-26T09:21:44.885Z,99302.16
2022-09-26T09:24:17.340Z,99303.28
2022-09-26T09:29:10.425Z,99305.56
2022-09-26T09:31:16.313Z,99304.34
2022-09-26T09:34:01.002Z,99294.22
2022-09-26T09:36:35.722Z,99306.97
2022-09-26T09:38:56.078Z,99293.09
2022-09-26T09:41:23.288Z,99298.94
2022-09-26T09:43:30.209Z,99297.25
2022-09-26T09:45:39.800Z,99293.66
2022-09-26T09:47:42.888Z,99281.88
2022-09-26T09:49:49.143Z,99276.28
2022-09-26T09:52:07.019Z,99278.00
2022-09-26T09:54:31.845Z,99259.41
2022-09-26T09:56:40.969Z,99273.09
2022-09-26T09:58:59.730Z,99248.06
2022-09-26T10:01:10.712Z,99242.28
2022-09-26T10:03:19.295Z,99246.53
2022-09-26T10:05:33.615Z,99254.28
2022-09-26T10:07:38.461Z,99230.47
2022-09-26T10:10:20.171Z,99245.31
2022-09-26T10:12:42.371Z,99248.34
2022-09-26T10:15:19.900Z,99245.13
2022-09-26T10:17:56.050Z,99226.84
2022-09-26T10:20:41.306Z,99227.59
2022-09-26T10:22:45.872Z,99236.66
2022-09-26T10:25:04.784Z,99226.47
2022-09-26T10:27:16.801Z,99212.00
2022-09-26T10:29:26.135Z,99203.03
2022-09-26T10:31:31.238Z,99202.38
2022-09-26T10:34:00.100Z,99203.81
2022-09-26T10:36:19.882Z,99194.22
2022-09-26T10:38:29.083Z,99187.38
2022-09-26T10:40:53.260Z,99173.09
2022-09-26T10:43:21.116Z,99203.91
2022-09-26T10:45:29.383Z,99174.72
2022-09-26T10:47:51.965Z,99146.19
2022-09-26T10:50:20.018Z,99142.59
2022-09-26T10:53:04.835Z,99144.44
2022-09-26T10:55:11.649Z,99117.50
2022-09-26T10:57:24.197Z,99131.91
2022-09-26T10:59:30.215Z,99134.25
2022-09-26T11:01:37.631Z,99139.97
2022-09-26T11:03:43.181Z,99110.47
2022-09-26T11:05:57.440Z,99107.28
2022-09-26T11:08:06.758Z,99105.28
2022-09-26T11:10:32.569Z,99100.63
2022-09-26T11:13:06.167Z,99097.69
2022-09-26T11:15:12.141Z,99084.78
2022-09-26T11:17:18.404Z,99093.56
2022-09-26T11:19:27.829Z,99080.72
2022-09-26T11:21:36.852Z,99069.44
2022-09-26T11:23:46.152Z,99103.38
2022-09-26T11:25:58.145Z,99075.44
2022-09-26T11:28:06.159Z,99085.81
2022-09-26T11:30:30.213Z,99079.56
2022-09-26T11:32:43.302Z,99069.63
2022-09-26T11:35:02.232Z,99062.66
2022-09-26T11:37:31.685Z,99057.56
2022-09-26T11:39:47.102Z,99060.53
2022-09-26T11:42:06.331Z,99048.56
2022-09-26T11:44:33.331Z,99050.25
2022-09-26T11:47:13.566Z,99048.56
2022-09-26T11:49:40.075Z,99054.97
2022-09-26T11:52:14.604Z,99032.19
2022-09-26T11:54:29.145Z,99028.22
2022-09-26T11:56:47.355Z,99022.94
2022-09-26T11:58:55.289Z,99013.50
2022-09-26T12:01:01.630Z,99022.94
2022-09-26T12:03:24.334Z,99010.03
2022-09-26T12:05:35.991Z,98995.16
2022-09-26T12:07:45.956Z,98987.78
2022-09-26T12:10:05.321Z,98996.53
2022-09-26T12:12:16.579Z,98991.84
2022-09-26T12:14:38.996Z,98967.19
2022-09-26T12:16:48.144Z,98964.03
2022-09-26T12:18:57.775Z,98955.19
2022-09-26T12:21:19.557Z,98949.13
2022-09-26T12:23:27.097Z,98950.16
2022-09-26T12:25:37.102Z,98968.38
2022-09-26T12:27:47.166Z,98943.94
2022-09-26T12:29:55.122Z,98936.31
2022-09-26T12:32:22.875Z,98944.38
2022-09-26T12:34:50.491Z,98950.53
2022-09-26T12:37:03.960Z,98930.78
2022-09-26T12:39:18.902Z,98926.81
2022-09-26T12:41:35.527Z,98920.03
2022-09-26T12:43:54.406Z,98920.72
2022-09-26T12:46:18.339Z,98911.09
2022-09-26T12:48:32.401Z,98901.13
2022-09-26T12:50:43.082Z,98902.38
2022-09-26T12:53:19.699Z,98907.41
2022-09-26T12:55:28.117Z,98891.41
2022-09-26T12:57:38.592Z,98893.44
2022-09-26T13:00:09.990Z,98884.44
2022-09-26T13:02:38.848Z,98881.94
2022-09-26T13:05:06.879Z,98882.41
2022-09-26T13:07:20.304Z,98890.56
2022-09-26T13:09:35.857Z,98891.66
2022-09-26T13:11:45.836Z,98890.69
2022-09-26T13:14:09.642Z,98884.94
2022-09-26T13:16:25.415Z,98900.56
2022-09-26T13:18:35.227Z,98909.72
2022-09-26T13:20:43.375Z,98927.00
2022-09-26T13:22:50.346Z,98907.81
2022-09-26T13:24:57.994Z,98926.19
2022-09-26T13:27:07.433Z,98919.09
2022-09-26T13:29:19.132Z,98924.03
2022-09-26T13:31:31.812Z,98937.56
2022-09-26T13:33:39.486Z,98914.56
2022-09-26T13:35:47.303Z,98908.66
2022-09-26T13:38:28.545Z,98911.03
2022-09-26T13:40:40.055Z,98905.63
2022-09-26T13:42:47.143Z,98928.22
2022-09-26T13:44:58.948Z,98926.53
2022-09-26T13:47:12.513Z,98912.56
2022-09-26T13:49:27.869Z,98918.28
2022-09-26T13:51:40.274Z,98931.25
2022-09-26T13:53:51.271Z,98917.72
2022-09-26T13:56:31.434Z,98916.97
2022-09-26T13:58:40.031Z,98905.03
2022-09-26T14:00:53.253Z,98901.72
2022-09-26T14:03:45.019Z,98922.63
2022-09-26T14:05:51.337Z,98906.38
2022-09-26T14:08:14.238Z,98875.78
2022-09-26T14:10:35.253Z,98890.06
2022-09-26T14:12:54.436Z,98885.97
2022-09-26T14:15:22.741Z,98896.94
2022-09-26T14:18:02.392Z,98886.47
2022-09-26T14:20:06.502Z,98881.44
2022-09-26T14:22:34.721Z,98875.72
2022-09-26T14:24:39.517Z,98873.38
2022-09-26T14:26:44.008Z,98870.19
2022-09-26T14:28:54.419Z,98870.47
2022-09-26T14:31:35.678Z,98861.03
2022-09-26T14:33:39.693Z,98853.56
2022-09-26T14:35:43.496Z,98860.50
2022-09-26T14:37:50.093Z,98861.75
2022-09-26T14:40:01.766Z,98864.28
2022-09-26T14:42:17.248Z,98856.44
2022-09-26T14:44:22.642Z,98851.69
2022-09-26T14:46:27.170Z,98848.69
2022-09-26T14:48:36.851Z,98843.75
2022-09-26T14:50:44.362Z,98840.75
2022-09-26T14:52:59.877Z,98826.59
2022-09-26T14:55:03.733Z,98827.25
2022-09-26T14:57:09.446Z,98829.16
2022-09-26T14:59:39.951Z,98829.63
2022-09-26T15:01:44.277Z,98840.22
2022-09-26T15:03:58.965Z,98827.97
2022-09-26T15:06:04.649Z,98828.16
2022-09-26T15:08:22.019Z,98815.34
2022-09-26T15:10:44.132Z,98825.03
2022-09-26T15:12:50.473Z,98821.97
2022-09-26T15:14:55.563Z,98829.19
2022-09-26T15:16:59.295Z,98826.56
2022-09-26T15:19:07.266Z,98812.81
2022-09-26T15:21:21.219Z,98824.69
2022-09-26T15:23:27.961Z,98811.09
2022-09-26T15:25:34.394Z,98811.97
2022-09-26T15:27:37.637Z,98813.00
2022-09-26T15:29:49.997Z,98817.78
2022-09-26T15:31:53.444Z,98804.56
2022-09-26T15:34:03.895Z,98800.75
2022-09-26T15:36:10.488Z,98788.81
2022-09-26T15:38:13.715Z,98780.88
2022-09-26T15:40:21.580Z,98796.75
2022-09-26T15:43:00.741Z,98803.31
2022-09-26T15:45:17.589Z,98789.28
2022-09-26T15:47:28.000Z,98782.38
2022-09-26T15:49:31.452Z,98788.31
2022-09-26T15:51:39.071Z,98776.34
2022-09-26T15:53:54.192Z,98778.38
2022-09-26T15:56:01.301Z,98783.47
2022-09-26T15:58:09.455Z,98776.06
2022-09-26T16:00:14.898Z,98777.78
2022-09-26T16:02:25.028Z,98773.66
2022-09-26T16:04:30.597Z,98771.25
2022-09-26T16:06:35.903Z,98769.53
2022-09-26T16:08:48.001Z,98774.59
2022-09-26T16:10:56.881Z,98754.75
2022-09-26T16:13:02.019Z,98783.72
2022-09-26T16:15:17.070Z,98753.56
2022-09-26T16:17:23.660Z,98756.81
2022-09-26T16:19:32.110Z,98758.53
2022-09-26T16:21:37.655Z,98738.31
2022-09-26T16:23:46.402Z,98762.84
2022-09-26T16:25:53.692Z,98736.19
2022-09-26T16:28:21.883Z,98728.47
2022-09-26T16:30:41.677Z,98744.34
2022-09-26T16:32:45.661Z,98732.72
2022-09-26T16:34:49.070Z,98755.66
2022-09-26T16:36:52.365Z,98727.63
2022-09-26T16:38:59.214Z,98738.44
2022-09-26T16:41:10.876Z,98737.00
2022-09-26T16:43:30.004Z,98726.06
2022-09-26T16:45:34.195Z,98736.13
2022-09-26T16:47:47.857Z,98730.63
2022-09-26T16:49:51.991Z,98723.53
2022-09-26T16:52:13.135Z,98737.31
2022-09-26T16:54:21.305Z,98728.09
2022-09-26T16:56:26.333Z,98737.81
2022-09-26T16:58:30.789Z,98723.97
2022-09-26T17:00:53.047Z,98722.69
2022-09-26T17:03:01.164Z,98727.06
2022-09-26T17:05:05.479Z,98711.38
2022-09-26T17:07:12.873Z,98718.06
2022-09-26T17:09:19.404Z,98720.69
2022-09-26T17:11:26.294Z,98717.13
2022-09-26T17:13:33.235Z,98717.13
2022-09-26T17:15:38.192Z,98719.03
2022-09-26T17:17:41.713Z,98717.53
2022-09-26T17:19:47.948Z,98702.66
2022-09-26T17:21:52.168Z,98711.22
2022-09-26T17:23:56.046Z,98714.84
2022-09-26T17:26:00.484Z,98716.75
2022-09-26T17:28:04.541Z,98688.66
2022-09-26T17:30:19.165Z,98699.75
2022-09-26T17:32:31.877Z,98699.97
2022-09-26T17:34:37.798Z,98696.94
2022-09-26T17:36:46.058Z,98693.97
2022-09-26T17:39:25.855Z,98696.09
2022-09-26T17:41:32.814Z,98689.97
2022-09-26T17:43:35.938Z,98699.47
2022-09-26T17:45:43.600Z,98692.72
2022-09-26T17:48:01.158Z,98692.94
2022-09-26T17:50:06.472Z,98700.13
2022-09-26T17:52:27.087Z,98687.69
2022-09-26T17:54:37.860Z,98694.84
2022-09-26T17:56:44.407Z,98682.44
2022-09-26T17:58:52.471Z,98687.69
2022-09-26T18:03:31.978Z,98685.75
2022-09-26T18:05:38.737Z,98684.69
2022-09-26T18:07:51.951Z,98684.78
2022-09-26T18:10:01.147Z,98678.13
2022-09-26T18:12:08.110Z,98672.03
2022-09-26T18:14:15.735Z,98686.16
2022-09-26T18:16:27.933Z,98678.25
2022-09-26T18:18:37.037Z,98680.25
2022-09-26T18:20:40.712Z,98674.16
2022-09-26T18:22:45.210Z,98661.69
2022-09-26T18:24:58.986Z,98664.09
2022-09-26T18:27:07.124Z,98669.06
2022-09-26T18:29:14.049Z,98667.06
2022-09-26T18:31:18.020Z,98659.16
2022-09-26T18:33:28.868Z,98655.34
2022-09-26T18:35:37.060Z,98660.09
2022-09-26T18:37:43.295Z,98669.50
2022-09-26T18:39:53.644Z,98660.84
2022-09-26T18:42:02.578Z,98657.34
2022-09-26T18:44:07.392Z,98662.09
2022-09-26T18:46:15.771Z,98653.25
2022-09-26T18:48:27.534Z,98651.88
2022-09-26T18:50:35.395Z,98658.41
2022-09-26T18:53:55.113Z,98658.13
2022-09-26T18:56:15.724Z,98652.63
2022-09-26T18:58:24.589Z,98655.47
2022-09-26T19:00:27.813Z,98650.91
2022-09-26T19:02:38.290Z,98654.50
2022-09-26T19:04:41.532Z,98656.94
2022-09-26T19:06:45.820Z,98655.78
2022-09-26T19:08:50.125Z,98651.75
2022-09-26T19:10:55.350Z,98645.44
2022-09-26T19:12:59.423Z,98638.44
2022-09-26T19:15:02.606Z,98649.44
2022-09-26T19:17:06.848Z,98650.31
2022-09-26T19:19:09.882Z,98648.94
2022-09-26T19:21:18.482Z,98646.69
2022-09-26T19:23:22.944Z,98654.94
2022-09-26T19:25:26.418Z,98638.03
2022-09-26T19:27:32.960Z,98652.72
2022-09-26T19:29:41.538Z,98640.03
2022-09-26T19:31:45.077Z,98638.03
2022-09-26T19:33:49.334Z,98636.25
2022-09-26T19:35:52.823Z,98646.91
2022-09-26T19:37:56.276Z,98649.84
2022-09-26T19:39:59.566Z,98638.03
2022-09-26T19:42:02.714Z,98644.16
2022-09-26T19:44:07.508Z,98633.50
2022-09-26T19:46:17.702Z,98635.81
2022-09-26T19:48:22.557Z,98635.06
2022-09-26T19:50:26.835Z,98635.28
2022-09-26T19:52:31.516Z,98636.78
2022-09-26T19:54:35.197Z,98621.47
2022-09-26T19:56:38.259Z,98634.88
2022-09-26T19:58:41.328Z,98630.44
2022-09-26T20:00:46.392Z,98634.03
2022-09-26T20:02:52.584Z,98628.44
2022-09-26T20:04:55.691Z,98626.53
2022-09-26T20:06:59.469Z,98624.41
2022-09-26T20:09:02.634Z,98630.84
2022-09-26T20:11:08.584Z,98628.09
2022-09-26T20:13:11.552Z,98626.00
2022-09-26T20:15:15.763Z,98635.72
2022-09-26T20:17:25.474Z,98631.19
2022-09-26T20:19:37.234Z,98627.78
2022-09-26T20:21:40.263Z,98622.28
2022-09-26T20:23:43.964Z,98621.53
2022-09-26T20:25:47.273Z,98615.66
2022-09-26T20:27:50.652Z,98615.13
2022-09-26T20:30:10.980Z,98617.00
2022-09-26T20:32:15.615Z,98616.81
2022-09-26T20:34:20.252Z,98613.56
2022-09-26T20:36:26.626Z,98604.66
2022-09-26T20:38:33.666Z,98597.72
2022-09-26T20:40:37.944Z,98597.09
2022-09-26T20:42:44.518Z,98596.00
2022-09-26T20:44:48.953Z,98598.00
2022-09-26T20:46:53.093Z,98594.22
2022-09-26T20:48:56.149Z,98593.25
2022-09-26T20:51:00.673Z,98596.22
2022-09-26T20:53:03.980Z,98598.97
2022-09-26T20:55:08.576Z,98600.66
2022-09-26T20:57:11.668Z,98602.56
2022-09-26T20:59:15.014Z,98605.41
2022-09-26T21:01:19.686Z,98613.09
2022-09-26T21:03:25.799Z,98605.94
2022-09-26T21:05:28.938Z,98608.88
2022-09-26T21:07:34.044Z,98607.09
2022-09-26T21:09:37.126Z,98608.69
2022-09-26T21:11:41.621Z,98608.88
2022-09-26T21:13:44.757Z,98599.69
2022-09-26T21:15:47.764Z,98604.13
2022-09-26T21:17:51.607Z,98605.59
2022-09-26T21:19:55.064Z,98600.31
2022-09-26T21:22:16.825Z,98586.47
2022-09-26T21:24:27.733Z,98593.66
2022-09-26T21:26:31.320Z,98593.34
2022-09-26T21:28:34.527Z,98585.44
2022-09-26T21:30:37.837Z,98582.69
2022-09-26T21:32:44.915Z,98589.31
2022-09-26T21:34:54.717Z,98582.28
2022-09-26T21:36:59.512Z,98580.97
2022-09-26T21:39:29.226Z,98575.50
2022-09-26T21:41:32.339Z,98577.28
2022-09-26T21:43:38.278Z,98572.97
2022-09-26T21:45:43.554Z,98568.50
2022-09-26T21:47:46.816Z,98564.81
2022-09-26T21:49:51.513Z,98565.06
2022-09-26T21:52:02.265Z,98569.13
2022-09-26T21:54:07.642Z,98564.47
2022-09-26T21:56:15.135Z,98568.19
2022-09-26T21:58:19.958Z,98559.66
2022-09-26T22:00:22.924Z,98562.19
2022-09-26T22:02:26.355Z,98555.00
2022-09-26T22:04:29.490Z,98556.78
2022-09-26T22:06:34.715Z,98552.47
2022-09-26T22:08:38.607Z,98551.63
2022-09-26T22:10:41.711Z,98550.88
2022-09-26T22:12:46.445Z,98547.09
2022-09-26T22:14:50.714Z,98542.34
2022-09-26T22:16:55.181Z,98541.25
2022-09-26T22:18:58.715Z,98544.75
2022-09-26T22:21:12.143Z,98540.63
2022-09-26T22:23:15.166Z,98531.25
2022-09-26T22:25:18.471Z,98536.09
2022-09-26T22:27:21.760Z,98531.56
2022-09-26T22:29:28.500Z,98531.78
2022-09-26T22:31:31.580Z,98527.50
2022-09-26T22:33:34.860Z,98522.22
2022-09-26T22:35:38.431Z,98532.59
2022-09-26T22:37:42.642Z,98524.47
2022-09-26T22:39:45.719Z,98529.97
2022-09-26T22:41:48.854Z,98520.78
2022-09-26T22:43:53.624Z,98527.44
2022-09-26T22:46:03.710Z,98519.72
2022-09-26T22:48:07.221Z,98511.66
2022-09-26T22:50:10.806Z,98510.66
2022-09-26T22:52:14.205Z,98510.03
2022-09-26T22:54:17.760Z,98511.75
2022-09-26T22:56:21.077Z,98509.59
2022-09-26T22:58:25.474Z,98511.75
2022-09-26T23:00:29.031Z,98506.88
2022-09-26T23:02:33.928Z,98504.97
2022-09-26T23:04:53.394Z,98504.25
2022-09-26T23:06:56.462Z,98512.00
2022-09-26T23:08:59.704Z,98511.88
2022-09-26T23:11:03.231Z,98506.72
2022-09-26T23:13:06.350Z,98509.63
2022-09-26T23:15:10.189Z,98516.47
2022-09-26T23:17:13.789Z,98511.66
2022-09-26T23:19:18.722Z,98503.50
2022-09-26T23:21:22.853Z,98508.13
2022-09-26T23:23:25.957Z,98502.38
2022-09-26T23:25:29.040Z,98504.13
2022-09-26T23:27:32.058Z,98513.66
2022-09-26T23:29:35.185Z,98515.81
2022-09-26T23:31:38.219Z,98519.94
2022-09-26T23:33:41.709Z,98523.31
2022-09-26T23:35:46.286Z,98514.03
2022-09-26T23:37:49.309Z,98518.47
2022-09-26T23:39:52.899Z,98513.06
2022-09-26T23:41:55.922Z,98518.03
2022-09-26T23:43:59.153Z,98523.31
2022-09-26T23:46:02.261Z,98518.84
2022-09-26T23:48:05.593Z,98518.47
2022-09-26T23:50:09.415Z,98520.06
2022-09-26T23:52:14.205Z,98518.22
2022-09-26T23:54:17.181Z,98516.91
2022-09-26T23:56:20.203Z,98515.94
2022-09-26T23:58:23.301Z,98526.63
